createdAt,value
2018-07-22T00:02:12.452Z,87.30
2018-07-22T00:04:42.085Z,87.60
2018-07-22T00:07:11.697Z,87.40
2018-07-22T00:09:42.600Z,88.40
2018-07-22T00:12:12.191Z,87.70
2018-07-22T00:14:41.826Z,87.40
2018-07-22T00:17:11.643Z,87.40
2018-07-22T00:19:41.277Z,87.80
2018-07-22T00:22:10.883Z,87.30
2018-07-22T00:24:41.624Z,87.20
2018-07-22T00:27:11.228Z,87.90
2018-07-22T00:29:41.088Z,87.60
2018-07-22T00:32:10.694Z,87.80
2018-07-22T00:34:40.318Z,88.40
2018-07-22T00:37:09.943Z,88.20
2018-07-22T00:39:41.255Z,88.20
2018-07-22T00:42:10.904Z,88.90
2018-07-22T00:44:40.554Z,88.10
2018-07-22T00:47:10.129Z,87.10
2018-07-22T00:49:39.738Z,88.20
2018-07-22T00:52:09.330Z,88.60
2018-07-22T00:54:39.921Z,88.40
2018-07-22T00:57:09.526Z,88.30
2018-07-22T00:59:39.203Z,88.50
2018-07-22T01:02:08.921Z,88.60
2018-07-22T01:07:07.809Z,88.90
2018-07-22T01:09:37.668Z,89.30
2018-07-22T01:12:07.854Z,89.20
2018-07-22T01:14:37.540Z,89.00
2018-07-22T01:17:07.275Z,89.30
2018-07-22T01:19:36.866Z,88.90
2018-07-22T01:22:06.549Z,88.80
2018-07-22T01:24:36.137Z,88.60
2018-07-22T01:27:05.852Z,88.90
2018-07-22T01:29:35.434Z,90.00
2018-07-22T01:32:05.033Z,89.40
2018-07-22T01:34:34.565Z,89.40
2018-07-22T01:37:04.136Z,89.30
2018-07-22T01:39:33.720Z,89.30
2018-07-22T01:42:03.343Z,89.10
2018-07-22T01:44:32.939Z,89.20
2018-07-22T01:47:02.619Z,89.50
2018-07-22T01:52:02.384Z,89.10
2018-07-22T01:54:31.970Z,89.10
2018-07-22T01:57:01.538Z,89.50
2018-07-22T01:59:31.142Z,90.10
2018-07-22T02:02:00.714Z,89.20
2018-07-22T02:04:30.283Z,89.70
2018-07-22T02:07:01.062Z,89.70
2018-07-22T02:09:30.632Z,90.00
2018-07-22T02:12:01.035Z,90.00
2018-07-22T02:14:30.643Z,90.00
2018-07-22T02:19:29.484Z,90.00
2018-07-22T02:22:00.936Z,90.20
2018-07-22T02:24:30.500Z,90.10
2018-07-22T02:27:00.121Z,90.30
2018-07-22T02:29:29.683Z,90.30
2018-07-22T02:31:59.274Z,90.30
2018-07-22T02:34:28.859Z,90.40
2018-07-22T02:36:59.276Z,90.50
2018-07-22T02:39:28.881Z,90.70
2018-07-22T02:41:58.510Z,90.60
2018-07-22T02:44:28.095Z,90.70
2018-07-22T02:46:57.676Z,90.70
2018-07-22T02:49:27.237Z,90.80
2018-07-22T02:51:59.210Z,90.80
2018-07-22T02:54:28.767Z,90.80
2018-07-22T02:56:58.389Z,90.60
2018-07-22T02:59:27.978Z,90.60
2018-07-22T03:01:57.710Z,90.60
2018-07-22T03:04:27.282Z,90.50
2018-07-22T03:06:57.903Z,90.60
2018-07-22T03:09:27.469Z,90.80
2018-07-22T03:11:58.626Z,90.80
2018-07-22T03:14:28.201Z,91.00
2018-07-22T03:16:57.812Z,90.80
2018-07-22T03:19:27.382Z,90.80
2018-07-22T03:24:27.787Z,90.50
2018-07-22T03:26:57.442Z,90.40
2018-07-22T03:29:26.991Z,90.30
2018-07-22T03:31:57.606Z,90.40
2018-07-22T03:34:27.281Z,90.50
2018-07-22T03:39:26.484Z,90.60
2018-07-22T03:41:57.289Z,90.80
2018-07-22T03:44:26.877Z,90.50
2018-07-22T03:46:56.937Z,90.70
2018-07-22T03:49:26.500Z,90.60
2018-07-22T03:51:58.432Z,90.70
2018-07-22T03:54:28.119Z,90.80
2018-07-22T03:56:57.857Z,90.80
2018-07-22T03:59:27.436Z,90.80
2018-07-22T04:01:58.903Z,90.90
2018-07-22T04:04:28.467Z,91.00
2018-07-22T04:06:59.610Z,90.60
2018-07-22T04:09:29.239Z,90.40
2018-07-22T04:11:59.752Z,90.40
2018-07-22T04:14:29.336Z,90.50
2018-07-22T04:16:58.967Z,90.30
2018-07-22T04:19:28.552Z,90.40
2018-07-22T04:22:00.261Z,90.30
2018-07-22T04:24:29.822Z,90.10
2018-07-22T04:26:59.529Z,89.90
2018-07-22T04:29:29.084Z,89.20
2018-07-22T04:31:59.075Z,89.30
2018-07-22T04:34:28.611Z,89.50
2018-07-22T04:36:58.965Z,89.40
2018-07-22T04:39:28.546Z,89.50
2018-07-22T04:41:58.807Z,89.30
2018-07-22T04:44:28.398Z,88.90
2018-07-22T04:46:58.716Z,88.10
2018-07-22T04:49:28.358Z,87.20
2018-07-22T04:51:59.128Z,87.20
2018-07-22T04:54:28.720Z,84.80
2018-07-22T04:59:28.932Z,83.10
2018-07-22T05:01:59.861Z,84.20
2018-07-22T05:04:29.460Z,83.90
2018-07-22T05:06:59.745Z,83.70
2018-07-22T05:09:29.302Z,83.40
2018-07-22T05:11:59.812Z,84.90
2018-07-22T05:14:29.345Z,83.40
2018-07-22T05:16:59.423Z,81.00
2018-07-22T05:19:29.002Z,76.40
2018-07-22T05:21:59.664Z,75.70
2018-07-22T05:24:29.217Z,74.90
2018-07-22T05:26:59.678Z,72.90
2018-07-22T05:29:29.332Z,72.50
2018-07-22T05:31:59.368Z,73.00
2018-07-22T05:34:28.926Z,73.10
2018-07-22T05:36:59.189Z,72.10
2018-07-22T05:39:28.806Z,71.50
2018-07-22T05:41:58.663Z,72.20
2018-07-22T05:44:28.240Z,72.50
2018-07-22T05:46:58.076Z,71.70
2018-07-22T05:49:27.657Z,70.30
2018-07-22T05:51:57.693Z,71.10
2018-07-22T05:54:27.328Z,70.50
2018-07-22T05:56:57.039Z,69.40
2018-07-22T05:59:26.743Z,68.20
2018-07-22T06:01:56.780Z,64.80
2018-07-22T06:04:26.370Z,66.10
2018-07-22T06:06:56.593Z,66.80
2018-07-22T06:09:26.204Z,66.90
2018-07-22T06:11:55.864Z,67.00
2018-07-22T06:14:25.383Z,65.40
2018-07-22T06:16:55.013Z,65.10
2018-07-22T06:19:23.583Z,67.10
2018-07-22T06:21:54.829Z,65.60
2018-07-22T06:24:24.539Z,66.20
2018-07-22T06:26:54.163Z,65.30
2018-07-22T06:29:23.742Z,64.70
2018-07-22T06:31:54.785Z,60.70
2018-07-22T06:34:24.403Z,60.20
2018-07-22T06:36:55.037Z,61.00
2018-07-22T06:39:24.694Z,60.90
2018-07-22T06:41:54.780Z,62.30
2018-07-22T06:44:24.473Z,60.40
2018-07-22T06:46:54.109Z,60.60
2018-07-22T06:49:23.677Z,59.40
2018-07-22T06:51:56.329Z,59.20
2018-07-22T06:54:27.117Z,58.70
2018-07-22T06:56:56.572Z,56.40
2018-07-22T07:01:55.741Z,56.50
2018-07-22T07:04:25.401Z,55.60
2018-07-22T07:07:01.228Z,55.40
2018-07-22T07:09:31.090Z,55.40
2018-07-22T07:12:04.401Z,53.30
2018-07-22T07:14:33.978Z,51.90
2018-07-22T07:17:04.281Z,52.90
2018-07-22T07:19:33.921Z,54.80
2018-07-22T07:22:03.718Z,54.10
2018-07-22T07:24:33.356Z,53.90
2018-07-22T07:27:03.031Z,54.60
2018-07-22T07:29:32.718Z,54.10
2018-07-22T07:32:02.334Z,53.40
2018-07-22T07:34:31.949Z,54.70
2018-07-22T07:37:01.630Z,54.20
2018-07-22T07:39:31.221Z,53.50
2018-07-22T07:42:00.804Z,51.80
2018-07-22T07:44:30.400Z,51.50
2018-07-22T07:47:02.052Z,51.10
2018-07-22T07:49:31.712Z,50.90
2018-07-22T07:52:01.432Z,50.00
2018-07-22T07:54:31.041Z,49.60
2018-07-22T07:59:30.084Z,48.40
2018-07-22T08:02:00.316Z,47.20
2018-07-22T08:04:30.082Z,46.90
2018-07-22T08:07:00.004Z,44.90
2018-07-22T08:09:29.749Z,45.40
2018-07-22T08:11:59.908Z,47.00
2018-07-22T08:14:29.630Z,46.30
2018-07-22T08:16:59.282Z,48.20
2018-07-22T08:19:28.855Z,48.50
2018-07-22T08:24:29.139Z,47.80
2018-07-22T08:26:58.763Z,49.90
2018-07-22T08:29:35.330Z,46.30
2018-07-22T08:32:05.916Z,48.30
2018-07-22T08:34:35.784Z,48.60
2018-07-22T08:37:05.480Z,49.20
2018-07-22T08:39:35.592Z,48.80
2018-07-22T08:44:34.573Z,47.10
2018-07-22T08:47:04.319Z,47.00
2018-07-22T08:49:33.968Z,47.20
2018-07-22T08:52:03.807Z,46.00
2018-07-22T08:54:33.449Z,46.80
2018-07-22T08:57:03.030Z,46.70
2018-07-22T08:59:32.653Z,45.60
2018-07-22T09:02:02.640Z,47.20
2018-07-22T09:04:32.223Z,44.40
2018-07-22T09:07:01.807Z,46.30
2018-07-22T09:09:31.417Z,44.80
2018-07-22T09:14:39.798Z,44.40
2018-07-22T09:17:09.763Z,43.70
2018-07-22T09:19:39.468Z,44.60
2018-07-22T09:22:09.307Z,45.30
2018-07-22T09:24:39.976Z,44.90
2018-07-22T09:27:10.093Z,45.00
2018-07-22T09:29:39.758Z,44.50
2018-07-22T09:32:09.468Z,44.40
2018-07-22T09:34:39.079Z,43.40
2018-07-22T09:37:08.660Z,42.90
2018-07-22T09:39:38.690Z,42.30
2018-07-22T09:42:08.403Z,41.80
2018-07-22T09:44:38.041Z,42.40
2018-07-22T09:47:07.636Z,41.70
2018-07-22T09:49:37.274Z,42.80
2018-07-22T09:52:06.896Z,41.60
2018-07-22T09:54:36.556Z,40.90
2018-07-22T09:57:06.214Z,41.00
2018-07-22T09:59:35.890Z,40.60
2018-07-22T10:02:05.508Z,40.50
2018-07-22T10:04:35.162Z,41.60
2018-07-22T10:07:04.847Z,43.90
2018-07-22T10:09:34.796Z,45.20
2018-07-22T10:12:05.189Z,44.00
2018-07-22T10:14:34.858Z,41.60
2018-07-22T10:17:04.470Z,41.20
2018-07-22T10:19:34.023Z,38.90
2018-07-22T10:22:03.617Z,40.90
2018-07-22T10:24:37.739Z,41.00
2018-07-22T10:27:07.765Z,39.70
2018-07-22T10:29:37.401Z,39.50
2018-07-22T10:32:07.860Z,40.20
2018-07-22T10:34:37.446Z,39.70
2018-07-22T10:37:08.235Z,39.70
2018-07-22T10:42:07.785Z,38.50
2018-07-22T10:44:37.376Z,39.20
2018-07-22T10:47:07.034Z,36.80
2018-07-22T10:49:36.970Z,38.50
2018-07-22T10:52:06.621Z,38.90
2018-07-22T10:54:36.209Z,38.80
2018-07-22T10:57:06.476Z,38.50
2018-07-22T10:59:36.074Z,37.30
2018-07-22T11:02:05.884Z,37.00
2018-07-22T11:04:35.442Z,35.70
2018-07-22T11:07:05.450Z,37.40
2018-07-22T11:09:35.056Z,36.80
2018-07-22T11:12:04.717Z,38.10
2018-07-22T11:14:34.513Z,38.50
2018-07-22T11:17:04.136Z,36.40
2018-07-22T11:19:33.772Z,35.70
2018-07-22T11:22:03.493Z,36.80
2018-07-22T11:24:33.116Z,38.00
2018-07-22T11:27:02.804Z,37.60
2018-07-22T11:29:32.620Z,36.70
2018-07-22T11:32:02.593Z,37.50
2018-07-22T11:34:32.755Z,36.60
2018-07-22T11:37:02.685Z,37.70
2018-07-22T11:39:32.814Z,37.80
2018-07-22T11:42:03.225Z,37.20
2018-07-22T11:44:32.867Z,37.10
2018-07-22T11:47:02.525Z,38.40
2018-07-22T11:49:32.211Z,35.40
2018-07-22T11:52:01.911Z,36.70
2018-07-22T11:54:31.569Z,34.80
2018-07-22T11:59:30.405Z,36.30
2018-07-22T12:02:00.473Z,34.70
2018-07-22T12:04:30.028Z,35.20
2018-07-22T12:06:59.927Z,35.50
2018-07-22T12:09:29.724Z,36.00
2018-07-22T12:12:00.535Z,35.90
2018-07-22T12:14:30.092Z,36.50
2018-07-22T12:17:00.107Z,36.70
2018-07-22T12:19:29.694Z,35.80
2018-07-22T12:22:00.402Z,37.40
2018-07-22T12:24:31.237Z,37.90
2018-07-22T12:27:00.962Z,37.80
2018-07-22T12:29:32.010Z,36.40
2018-07-22T12:32:01.640Z,36.00
2018-07-22T12:34:31.239Z,36.70
2018-07-22T12:37:01.011Z,36.50
2018-07-22T12:39:30.597Z,36.50
2018-07-22T12:44:34.688Z,35.10
2018-07-22T12:47:05.534Z,35.20
2018-07-22T12:49:35.148Z,37.30
2018-07-22T12:52:04.755Z,36.50
2018-07-22T12:54:34.321Z,36.80
2018-07-22T12:57:04.042Z,37.00
2018-07-22T12:59:33.598Z,36.40
2018-07-22T13:02:04.431Z,36.10
2018-07-22T13:04:35.420Z,37.00
2018-07-22T13:07:07.091Z,37.70
2018-07-22T13:09:36.727Z,37.50
2018-07-22T13:12:06.491Z,35.90
2018-07-22T13:14:36.152Z,35.00
2018-07-22T13:17:05.852Z,36.20
2018-07-22T13:19:35.487Z,36.30
2018-07-22T13:22:05.103Z,36.30
2018-07-22T13:24:35.045Z,34.10
2018-07-22T13:27:04.680Z,37.00
2018-07-22T13:29:34.378Z,35.40
2018-07-22T13:32:04.113Z,37.00
2018-07-22T13:34:33.760Z,38.70
2018-07-22T13:37:04.824Z,37.10
2018-07-22T13:39:34.979Z,36.10
2018-07-22T13:42:05.322Z,35.80
2018-07-22T13:44:35.255Z,35.30
2018-07-22T13:47:05.026Z,35.50
2018-07-22T13:49:34.636Z,35.00
2018-07-22T13:52:05.318Z,35.50
2018-07-22T13:54:37.037Z,36.40
2018-07-22T13:57:07.439Z,34.60
2018-07-22T13:59:37.282Z,34.90
2018-07-22T14:02:07.516Z,35.60
2018-07-22T14:04:40.023Z,36.20
2018-07-22T14:07:09.890Z,35.90
2018-07-22T14:09:40.185Z,35.30
2018-07-22T14:12:10.043Z,34.60
2018-07-22T14:14:39.701Z,34.20
2018-07-22T14:17:09.305Z,32.60
2018-07-22T14:19:38.928Z,33.90
2018-07-22T14:22:08.564Z,33.90
2018-07-22T14:24:38.594Z,33.70
2018-07-22T14:27:08.211Z,33.60
2018-07-22T14:29:37.833Z,34.40
2018-07-22T14:32:07.625Z,36.60
2018-07-22T14:34:37.295Z,37.40
2018-07-22T14:37:07.112Z,36.60
2018-07-22T14:39:36.828Z,36.40
2018-07-22T14:42:07.548Z,36.40
2018-07-22T14:44:37.441Z,35.00
2018-07-22T14:47:07.486Z,33.30
2018-07-22T14:49:37.081Z,34.20
2018-07-22T14:52:08.506Z,32.90
2018-07-22T14:57:08.269Z,32.80
2018-07-22T14:59:37.974Z,33.10
2018-07-22T15:02:07.731Z,34.20
2018-07-22T15:04:37.369Z,32.90
2018-07-22T15:07:06.972Z,32.90
2018-07-22T15:09:36.704Z,32.10
2018-07-22T15:12:07.099Z,33.00
2018-07-22T15:17:05.966Z,33.70
2018-07-22T15:19:35.639Z,32.70
2018-07-22T15:22:05.319Z,33.70
2018-07-22T15:24:34.935Z,34.10
2018-07-22T15:27:04.558Z,36.30
2018-07-22T15:29:35.071Z,36.10
2018-07-22T15:32:04.706Z,36.80
2018-07-22T15:34:34.385Z,35.80
2018-07-22T15:37:04.007Z,35.70
2018-07-22T15:39:34.079Z,36.90
2018-07-22T15:42:03.725Z,37.50
2018-07-22T15:44:34.324Z,35.40
2018-07-22T15:49:34.049Z,36.40
2018-07-22T15:52:04.243Z,36.40
2018-07-22T15:54:34.807Z,37.20
2018-07-22T15:57:04.420Z,38.20
2018-07-22T15:59:34.848Z,36.20
2018-07-22T16:02:07.656Z,37.80
2018-07-22T16:04:37.444Z,37.60
2018-07-22T16:07:07.353Z,37.80
2018-07-22T16:09:36.917Z,38.90
2018-07-22T16:12:07.332Z,38.60
2018-07-22T16:14:38.157Z,38.80
2018-07-22T16:17:07.943Z,38.70
2018-07-22T16:19:37.728Z,39.10
2018-07-22T16:22:07.481Z,39.20
2018-07-22T16:24:39.434Z,39.00
2018-07-22T16:27:09.026Z,39.50
2018-07-22T16:29:38.696Z,38.40
2018-07-22T16:32:08.512Z,40.70
2018-07-22T16:34:38.154Z,37.90
2018-07-22T16:37:07.968Z,40.20
2018-07-22T16:39:38.022Z,38.90
2018-07-22T16:42:07.739Z,41.10
2018-07-22T16:44:37.607Z,40.50
2018-07-22T16:47:07.353Z,40.90
2018-07-22T16:49:37.730Z,40.70
2018-07-22T16:52:07.280Z,41.00
2018-07-22T16:54:38.033Z,41.20
2018-07-22T16:57:07.748Z,41.80
2018-07-22T16:59:38.323Z,41.50
2018-07-22T17:02:07.924Z,41.60
2018-07-22T17:04:38.254Z,41.60
2018-07-22T17:09:39.008Z,42.50
2018-07-22T17:14:38.710Z,41.30
2018-07-22T17:19:38.656Z,42.20
2018-07-22T17:22:08.349Z,41.50
2018-07-22T17:24:39.809Z,42.20
2018-07-22T17:27:09.392Z,41.80
2018-07-22T17:29:40.747Z,43.40
2018-07-22T17:32:10.289Z,42.70
2018-07-22T17:34:40.574Z,42.80
2018-07-22T17:37:10.210Z,43.00
2018-07-22T17:39:42.091Z,43.90
2018-07-22T17:42:11.711Z,42.70
2018-07-22T17:44:42.918Z,42.20
2018-07-22T17:47:15.391Z,42.30
2018-07-22T17:49:45.992Z,42.60
2018-07-22T17:52:15.782Z,42.80
2018-07-22T17:54:50.012Z,43.30
2018-07-22T17:57:28.932Z,43.60
2018-07-22T18:00:11.529Z,44.00
2018-07-22T18:02:50.607Z,43.90
2018-07-22T18:05:20.784Z,44.50
2018-07-22T18:07:50.347Z,44.90
2018-07-22T18:10:20.144Z,45.40
2018-07-22T18:12:52.447Z,45.60
2018-07-22T18:15:24.163Z,46.20
2018-07-22T18:18:03.838Z,46.50
2018-07-22T18:20:34.146Z,45.10
2018-07-22T18:23:04.113Z,46.70
2018-07-22T18:25:35.425Z,46.90
2018-07-22T18:28:05.113Z,47.90
2018-07-22T18:30:34.790Z,48.60
2018-07-22T18:33:04.410Z,48.30
2018-07-22T18:35:34.122Z,48.90
2018-07-22T18:38:03.833Z,48.60
2018-07-22T18:40:33.438Z,48.80
2018-07-22T18:43:03.147Z,48.80
2018-07-22T18:45:32.812Z,48.80
2018-07-22T18:50:31.872Z,48.80
2018-07-22T18:53:01.477Z,48.70
2018-07-22T18:55:31.080Z,48.50
2018-07-22T18:58:01.364Z,48.80
2018-07-22T19:00:30.973Z,50.60
2018-07-22T19:03:01.739Z,50.50
2018-07-22T19:05:31.562Z,51.40
2018-07-22T19:08:01.085Z,51.80
2018-07-22T19:10:30.816Z,50.60
2018-07-22T19:13:06.447Z,52.20
2018-07-22T19:15:44.940Z,52.70
2018-07-22T19:18:16.936Z,53.50
2018-07-22T19:20:50.850Z,55.30
2018-07-22T19:25:49.878Z,55.70
2018-07-22T19:28:19.603Z,53.10
2018-07-22T19:30:49.356Z,55.80
2018-07-22T19:33:19.009Z,57.50
2018-07-22T19:35:48.809Z,57.80
2018-07-22T19:38:18.539Z,58.10
2018-07-22T19:40:48.461Z,58.20
2018-07-22T19:43:18.048Z,59.50
2018-07-22T19:45:48.407Z,61.90
2018-07-22T19:48:18.024Z,63.00
2018-07-22T19:50:47.768Z,64.30
2018-07-22T19:53:17.457Z,65.20
2018-07-22T19:55:47.118Z,66.30
2018-07-22T19:58:17.911Z,64.50
2018-07-22T20:00:47.563Z,64.40
2018-07-22T20:03:17.309Z,66.20
2018-07-22T20:05:47.020Z,67.50
2018-07-22T20:08:16.626Z,67.90
2018-07-22T20:10:46.268Z,67.50
2018-07-22T20:13:15.893Z,68.20
2018-07-22T20:15:45.558Z,68.10
2018-07-22T20:18:15.135Z,68.30
2018-07-22T20:20:44.800Z,68.40
2018-07-22T20:23:14.403Z,68.20
2018-07-22T20:25:44.075Z,68.80
2018-07-22T20:28:13.625Z,69.50
2018-07-22T20:30:46.104Z,70.10
2018-07-22T20:33:15.791Z,70.80
2018-07-22T20:35:45.484Z,70.90
2018-07-22T20:38:15.154Z,70.70
2018-07-22T20:40:44.793Z,71.10
2018-07-22T20:43:14.534Z,71.80
2018-07-22T20:45:44.368Z,71.20
2018-07-22T20:48:13.981Z,72.10
2018-07-22T20:50:45.007Z,72.40
2018-07-22T20:53:14.973Z,67.50
2018-07-22T20:55:44.975Z,73.30
2018-07-22T20:58:14.785Z,73.90
2018-07-22T21:00:44.843Z,74.20
2018-07-22T21:05:44.574Z,75.00
2018-07-22T21:08:14.512Z,75.50
2018-07-22T21:10:44.621Z,75.80
2018-07-22T21:13:20.821Z,75.50
2018-07-22T21:15:50.632Z,74.80
2018-07-22T21:18:20.264Z,74.50
2018-07-22T21:20:49.970Z,74.50
2018-07-22T21:23:19.669Z,73.60
2018-07-22T21:25:49.318Z,74.10
2018-07-22T21:28:19.001Z,74.20
2018-07-22T21:30:48.582Z,74.60
2018-07-22T21:33:18.184Z,74.40
2018-07-22T21:35:47.863Z,75.80
2018-07-22T21:38:17.463Z,76.20
2018-07-22T21:40:47.035Z,76.80
2018-07-22T21:43:16.635Z,77.20
2018-07-22T21:45:46.841Z,77.30
2018-07-22T21:48:17.264Z,77.70
2018-07-22T21:50:47.001Z,78.30
2018-07-22T21:53:16.876Z,78.50
2018-07-22T21:55:46.725Z,78.60
2018-07-22T21:58:16.625Z,79.20
2018-07-22T22:00:46.576Z,79.30
2018-07-22T22:03:16.266Z,78.00
2018-07-22T22:05:45.881Z,79.00
2018-07-22T22:10:45.223Z,79.20
2018-07-22T22:13:14.859Z,79.00
2018-07-22T22:15:44.501Z,79.30
2018-07-22T22:18:14.140Z,79.70
2018-07-22T22:20:43.796Z,79.90
2018-07-22T22:23:13.983Z,80.50
2018-07-22T22:25:43.838Z,80.90
2018-07-22T22:28:13.501Z,80.80
2018-07-22T22:30:44.049Z,80.80
2018-07-22T22:33:13.684Z,80.60
2018-07-22T22:35:43.318Z,81.10
2018-07-22T22:38:12.964Z,79.80
2018-07-22T22:40:42.561Z,80.20
2018-07-22T22:43:12.212Z,80.70
2018-07-22T22:45:42.729Z,81.00
2018-07-22T22:48:12.473Z,81.10
2018-07-22T22:50:42.136Z,81.40
2018-07-22T22:53:11.823Z,81.60
2018-07-22T22:55:41.457Z,81.80
2018-07-22T22:58:27.716Z,81.40
2018-07-22T23:00:58.711Z,81.10
2018-07-22T23:03:28.378Z,80.60
2018-07-22T23:05:58.009Z,79.20
2018-07-22T23:08:27.732Z,76.20
2018-07-22T23:10:57.358Z,72.80
2018-07-22T23:13:27.032Z,75.70
2018-07-22T23:15:57.590Z,74.60
2018-07-22T23:18:27.258Z,74.60
2018-07-22T23:20:56.943Z,74.40
2018-07-22T23:23:26.652Z,74.40
2018-07-22T23:25:56.236Z,75.90
2018-07-22T23:28:26.022Z,76.10
2018-07-22T23:30:56.221Z,74.40
2018-07-22T23:33:25.811Z,75.70
2018-07-22T23:35:55.455Z,74.40
2018-07-22T23:38:25.068Z,76.20
2018-07-22T23:40:54.643Z,75.20
2018-07-22T23:43:24.249Z,77.00
2018-07-22T23:45:53.850Z,77.80
2018-07-22T23:48:23.444Z,77.70
2018-07-22T23:50:53.157Z,78.10
2018-07-22T23:53:22.835Z,78.70
2018-07-22T23:55:52.470Z,79.40
2018-07-22T23:58:22.055Z,79.70
